createdAt,value
2018-05-17T00:01:57.390Z,12.40
2018-05-17T00:04:24.886Z,12.40
2018-05-17T00:06:53.131Z,12.30
2018-05-17T00:09:20.624Z,12.30
2018-05-17T00:11:48.864Z,12.20
2018-05-17T00:14:16.368Z,12.20
2018-05-17T00:16:43.864Z,12.20
2018-05-17T00:19:11.371Z,12.10
2018-05-17T00:21:39.609Z,12.00
2018-05-17T00:24:07.093Z,11.90
2018-05-17T00:26:35.362Z,12.10
2018-05-17T00:29:02.846Z,12.10
2018-05-17T00:31:31.105Z,12.10
2018-05-17T00:33:59.660Z,12.10
2018-05-17T00:36:27.138Z,12.10
2018-05-17T00:38:54.608Z,12.10
2018-05-17T00:41:22.873Z,12.10
2018-05-17T00:43:50.357Z,12.10
2018-05-17T00:46:17.888Z,12.10
2018-05-17T00:48:45.361Z,12.10
2018-05-17T00:51:13.606Z,12.20
2018-05-17T00:53:41.100Z,12.20
2018-05-17T00:56:09.346Z,12.10
2018-05-17T00:58:36.856Z,12.10
2018-05-17T01:01:04.333Z,12.10
2018-05-17T01:03:31.805Z,12.00
2018-05-17T01:05:59.301Z,12.00
2018-05-17T01:08:27.538Z,11.90
2018-05-17T01:10:55.045Z,11.90
2018-05-17T01:13:23.289Z,11.70
2018-05-17T01:15:50.810Z,11.70
2018-05-17T01:18:18.284Z,11.60
2018-05-17T01:20:45.788Z,11.60
2018-05-17T01:23:14.022Z,11.50
2018-05-17T01:25:41.536Z,11.50
2018-05-17T01:28:09.017Z,11.30
2018-05-17T01:30:36.533Z,11.20
2018-05-17T01:33:04.010Z,11.10
2018-05-17T01:35:31.517Z,11.20
2018-05-17T01:38:10.829Z,11.10
2018-05-17T01:40:38.339Z,11.10
2018-05-17T01:43:05.824Z,11.00
2018-05-17T01:45:34.057Z,10.80
2018-05-17T01:48:01.563Z,10.80
2018-05-17T01:50:29.045Z,10.90
2018-05-17T01:52:56.546Z,10.70
2018-05-17T01:55:24.022Z,10.80
2018-05-17T01:57:52.285Z,10.90
2018-05-17T02:00:19.762Z,10.90
2018-05-17T02:02:48.050Z,10.80
2018-05-17T02:05:15.535Z,10.70
2018-05-17T02:07:43.009Z,10.70
2018-05-17T02:10:10.534Z,10.60
2018-05-17T02:12:38.006Z,10.50
2018-05-17T02:15:05.516Z,10.30
2018-05-17T02:17:33.783Z,10.30
2018-05-17T02:20:01.289Z,10.30
2018-05-17T02:22:28.770Z,10.30
2018-05-17T02:24:56.269Z,10.20
2018-05-17T02:27:24.518Z,10.00
2018-05-17T02:29:52.018Z,10.00
2018-05-17T02:32:20.271Z,9.90
2018-05-17T02:34:47.775Z,9.90
2018-05-17T02:37:15.250Z,10.00
2018-05-17T02:39:42.752Z,9.90
2018-05-17T02:42:10.988Z,9.70
2018-05-17T02:44:38.480Z,9.70
2018-05-17T02:47:05.977Z,9.60
2018-05-17T02:49:33.482Z,9.50
2018-05-17T02:52:00.956Z,9.50
2018-05-17T02:54:28.429Z,9.60
2018-05-17T02:56:55.950Z,9.70
2018-05-17T02:59:23.453Z,9.70
2018-05-17T03:01:51.688Z,9.70
2018-05-17T03:04:19.190Z,9.70
2018-05-17T03:06:47.421Z,9.70
2018-05-17T03:09:14.897Z,9.70
2018-05-17T03:11:42.396Z,9.80
2018-05-17T03:14:09.913Z,9.90
2018-05-17T03:16:37.393Z,10.00
2018-05-17T03:19:05.624Z,9.90
2018-05-17T03:21:33.138Z,9.90
2018-05-17T03:24:01.394Z,9.90
2018-05-17T03:26:29.629Z,9.80
2018-05-17T03:28:57.125Z,9.80
2018-05-17T03:31:25.385Z,9.80
2018-05-17T03:33:52.880Z,9.80
2018-05-17T03:36:20.350Z,9.70
2018-05-17T03:38:47.844Z,9.70
2018-05-17T03:41:15.318Z,9.70
2018-05-17T03:43:42.820Z,9.70
2018-05-17T03:46:10.295Z,9.70
2018-05-17T03:48:37.768Z,9.70
2018-05-17T03:51:05.274Z,9.60
2018-05-17T03:53:33.504Z,9.40
2018-05-17T03:56:00.998Z,9.40
2018-05-17T03:58:28.729Z,9.50
2018-05-17T04:01:08.213Z,9.40
2018-05-17T04:03:48.154Z,9.40
2018-05-17T04:06:28.422Z,9.50
2018-05-17T04:08:56.652Z,9.60
2018-05-17T04:11:24.154Z,9.60
2018-05-17T04:13:52.463Z,9.50
2018-05-17T04:16:19.925Z,9.50
2018-05-17T04:18:47.401Z,9.60
2018-05-17T04:21:14.899Z,9.70
2018-05-17T04:23:43.138Z,9.60
2018-05-17T04:26:10.642Z,9.70
2018-05-17T04:28:38.872Z,9.80
2018-05-17T04:31:06.340Z,9.70
2018-05-17T04:33:33.832Z,9.80
2018-05-17T04:36:02.070Z,9.80
2018-05-17T04:38:29.571Z,9.70
2018-05-17T04:40:57.895Z,9.70
2018-05-17T04:43:25.401Z,9.70
2018-05-17T04:45:53.641Z,9.60
2018-05-17T04:48:21.104Z,9.60
2018-05-17T04:50:48.606Z,9.70
2018-05-17T04:53:16.836Z,9.60
2018-05-17T04:55:44.336Z,9.60
2018-05-17T04:58:12.574Z,9.70
2018-05-17T05:00:40.069Z,9.70
2018-05-17T05:03:08.307Z,9.70
2018-05-17T05:05:35.801Z,9.70
2018-05-17T05:08:04.057Z,9.50
2018-05-17T05:10:31.548Z,9.50
2018-05-17T05:12:59.043Z,9.60
2018-05-17T05:15:26.509Z,9.70
2018-05-17T05:17:54.041Z,9.80
2018-05-17T05:20:21.512Z,9.90
2018-05-17T05:22:48.999Z,10.00
2018-05-17T05:25:18.203Z,10.00
2018-05-17T05:27:46.410Z,10.10
2018-05-17T05:30:13.985Z,10.10
2018-05-17T05:32:41.464Z,10.00
2018-05-17T05:35:08.972Z,10.00
2018-05-17T05:37:37.225Z,9.90
2018-05-17T05:40:04.717Z,9.80
2018-05-17T05:42:32.198Z,9.90
2018-05-17T05:44:59.691Z,9.90
2018-05-17T05:47:27.161Z,9.90
2018-05-17T05:49:54.664Z,10.10
2018-05-17T05:52:22.136Z,10.00
2018-05-17T05:54:49.653Z,10.00
2018-05-17T05:57:17.895Z,10.10
2018-05-17T05:59:45.368Z,10.10
2018-05-17T06:02:12.877Z,10.00
2018-05-17T06:04:40.349Z,10.20
2018-05-17T06:07:07.821Z,10.10
2018-05-17T06:09:35.320Z,10.20
2018-05-17T06:12:03.566Z,10.20
2018-05-17T06:14:31.057Z,10.20
2018-05-17T06:16:59.325Z,10.40
2018-05-17T06:19:27.572Z,10.40
2018-05-17T06:21:55.083Z,10.40
2018-05-17T06:24:22.582Z,10.40
2018-05-17T06:26:50.081Z,10.40
2018-05-17T06:29:18.348Z,10.10
2018-05-17T06:31:45.819Z,10.10
2018-05-17T06:34:14.088Z,10.20
2018-05-17T06:36:42.329Z,10.40
2018-05-17T06:39:09.827Z,10.40
2018-05-17T06:41:38.101Z,10.60
2018-05-17T06:44:06.372Z,10.60
2018-05-17T06:46:35.459Z,10.60
2018-05-17T06:49:02.961Z,10.60
2018-05-17T06:51:30.433Z,10.60
2018-05-17T06:53:57.915Z,10.70
2018-05-17T06:56:25.404Z,10.80
2018-05-17T06:58:53.675Z,10.80
2018-05-17T07:01:21.175Z,10.80
2018-05-17T07:03:48.653Z,11.00
2018-05-17T07:06:16.155Z,11.10
2018-05-17T07:08:44.406Z,11.20
2018-05-17T07:11:11.904Z,11.20
2018-05-17T07:13:40.146Z,11.20
2018-05-17T07:16:07.645Z,11.20
2018-05-17T07:18:35.332Z,11.40
2018-05-17T07:21:02.649Z,11.50
2018-05-17T07:23:30.886Z,11.70
2018-05-17T07:25:58.391Z,11.70
2018-05-17T07:28:25.877Z,11.70
2018-05-17T07:30:53.386Z,11.50
2018-05-17T07:33:20.862Z,11.60
2018-05-17T07:35:49.125Z,11.60
2018-05-17T07:38:17.366Z,11.80
2018-05-17T07:40:44.881Z,11.80
2018-05-17T07:43:13.127Z,12.30
2018-05-17T07:45:40.598Z,12.20
2018-05-17T07:48:08.907Z,12.30
2018-05-17T07:50:36.407Z,12.30
2018-05-17T07:53:03.885Z,12.20
2018-05-17T07:55:32.214Z,11.70
2018-05-17T07:58:00.417Z,11.60
2018-05-17T08:00:27.915Z,11.60
2018-05-17T08:02:56.208Z,12.00
2018-05-17T08:05:23.689Z,12.00
2018-05-17T08:07:51.193Z,11.90
2018-05-17T08:10:19.461Z,12.10
2018-05-17T08:12:46.930Z,12.00
2018-05-17T08:15:15.204Z,12.60
2018-05-17T08:17:43.446Z,12.20
2018-05-17T08:20:10.916Z,12.20
2018-05-17T08:22:38.417Z,12.30
2018-05-17T08:25:05.890Z,12.20
2018-05-17T08:27:33.405Z,12.10
2018-05-17T08:30:00.885Z,12.30
2018-05-17T08:32:29.230Z,13.00
2018-05-17T08:34:57.396Z,12.90
2018-05-17T08:37:24.900Z,12.90
2018-05-17T08:39:53.148Z,13.00
2018-05-17T08:42:20.647Z,12.90
2018-05-17T08:44:48.132Z,12.90
2018-05-17T08:47:15.604Z,12.90
2018-05-17T08:49:43.190Z,12.80
2018-05-17T08:52:12.455Z,13.00
2018-05-17T08:54:39.955Z,13.00
2018-05-17T08:57:08.197Z,13.00
2018-05-17T08:59:35.715Z,13.00
2018-05-17T09:02:03.192Z,13.20
2018-05-17T09:04:30.702Z,13.40
2018-05-17T09:06:58.944Z,13.30
2018-05-17T09:09:26.413Z,13.30
2018-05-17T09:11:54.034Z,13.50
2018-05-17T09:14:21.541Z,13.70
2018-05-17T09:16:49.033Z,13.80
2018-05-17T09:19:16.545Z,13.90
2018-05-17T09:21:44.020Z,13.80
2018-05-17T09:24:11.496Z,13.80
2018-05-17T09:26:39.763Z,14.00
2018-05-17T09:29:07.280Z,14.00
2018-05-17T09:31:34.794Z,13.90
2018-05-17T09:34:03.037Z,13.60
2018-05-17T09:36:30.543Z,13.60
2018-05-17T09:38:58.056Z,13.90
2018-05-17T09:41:25.645Z,14.20
2018-05-17T09:43:53.047Z,14.10
2018-05-17T09:46:20.552Z,14.10
2018-05-17T09:48:48.796Z,13.90
2018-05-17T09:51:16.269Z,13.90
2018-05-17T09:53:43.768Z,14.00
2018-05-17T09:56:11.264Z,13.90
2018-05-17T09:58:39.675Z,13.90
2018-05-17T10:01:07.635Z,14.10
2018-05-17T10:03:37.126Z,14.50
2018-05-17T10:06:05.837Z,14.40
2018-05-17T10:08:34.419Z,14.70
2018-05-17T10:11:03.820Z,14.60
2018-05-17T10:13:32.453Z,14.60
2018-05-17T10:16:01.048Z,14.50
2018-05-17T10:18:29.374Z,14.20
2018-05-17T10:20:56.928Z,14.60
2018-05-17T10:23:24.425Z,14.90
2018-05-17T10:25:52.227Z,15.10
2018-05-17T10:28:19.755Z,14.90
2018-05-17T10:30:47.356Z,14.70
2018-05-17T10:33:15.976Z,14.60
2018-05-17T10:35:43.539Z,14.60
2018-05-17T10:38:12.563Z,15.00
2018-05-17T10:40:40.197Z,15.00
2018-05-17T10:43:07.787Z,15.10
2018-05-17T10:45:35.305Z,15.20
2018-05-17T10:48:03.612Z,15.50
2018-05-17T10:50:31.297Z,15.50
2018-05-17T10:52:58.853Z,15.40
2018-05-17T10:55:26.336Z,15.40
2018-05-17T10:57:53.860Z,15.20
2018-05-17T11:00:21.561Z,15.40
2018-05-17T11:02:49.731Z,15.50
2018-05-17T11:05:17.201Z,15.40
2018-05-17T11:07:44.697Z,15.40
2018-05-17T11:10:12.174Z,15.50
2018-05-17T11:12:39.669Z,15.60
2018-05-17T11:15:08.267Z,15.80
2018-05-17T11:17:36.511Z,15.50
2018-05-17T11:20:04.021Z,15.50
2018-05-17T11:22:32.256Z,15.80
2018-05-17T11:24:59.729Z,15.80
2018-05-17T11:27:28.010Z,15.30
2018-05-17T11:29:55.527Z,15.30
2018-05-17T11:32:22.998Z,15.30
2018-05-17T11:34:50.493Z,15.50
2018-05-17T11:37:18.765Z,15.60
2018-05-17T11:39:46.237Z,15.60
2018-05-17T11:42:14.489Z,15.80
2018-05-17T11:44:41.991Z,15.80
2018-05-17T11:47:09.490Z,16.00
2018-05-17T11:49:36.993Z,16.20
2018-05-17T11:52:05.268Z,16.10
2018-05-17T11:54:33.522Z,16.10
2018-05-17T11:57:01.000Z,16.10
2018-05-17T11:59:29.261Z,16.30
2018-05-17T12:01:57.509Z,16.40
2018-05-17T12:04:25.010Z,16.30
2018-05-17T12:06:53.255Z,16.60
2018-05-17T12:09:20.872Z,16.60
2018-05-17T12:11:48.352Z,16.90
2018-05-17T12:14:15.825Z,16.90
2018-05-17T12:16:43.317Z,17.20
2018-05-17T12:19:11.582Z,16.50
2018-05-17T12:21:39.833Z,16.60
2018-05-17T12:24:07.329Z,16.60
2018-05-17T12:26:35.573Z,16.80
2018-05-17T12:29:03.071Z,16.80
2018-05-17T12:31:31.308Z,16.90
2018-05-17T12:33:58.808Z,16.90
2018-05-17T12:36:27.048Z,17.10
2018-05-17T12:38:54.545Z,17.10
2018-05-17T12:41:22.016Z,17.30
2018-05-17T12:43:49.520Z,17.00
2018-05-17T12:46:16.997Z,17.00
2018-05-17T12:48:45.268Z,17.50
2018-05-17T12:51:12.740Z,17.50
2018-05-17T12:53:41.005Z,17.90
2018-05-17T12:56:08.508Z,17.80
2018-05-17T12:58:36.117Z,17.70
2018-05-17T13:01:04.267Z,18.00
2018-05-17T13:03:31.753Z,18.00
2018-05-17T13:05:59.256Z,18.20
2018-05-17T13:08:26.732Z,18.00
2018-05-17T13:10:54.249Z,18.00
2018-05-17T13:13:22.492Z,17.50
2018-05-17T13:15:49.965Z,17.40
2018-05-17T13:18:17.461Z,17.30
2018-05-17T13:20:44.936Z,17.70
2018-05-17T13:23:12.433Z,17.80
2018-05-17T13:25:39.901Z,17.90
2018-05-17T13:28:08.165Z,17.60
2018-05-17T13:30:35.651Z,17.60
2018-05-17T13:33:03.927Z,18.00
2018-05-17T13:35:32.170Z,18.10
2018-05-17T13:37:59.673Z,18.10
2018-05-17T13:40:27.163Z,18.00
2018-05-17T13:42:54.660Z,17.80
2018-05-17T13:45:22.901Z,17.60
2018-05-17T13:47:50.400Z,17.60
2018-05-17T13:50:18.654Z,17.60
2018-05-17T13:52:46.175Z,17.60
2018-05-17T13:55:13.652Z,17.60
2018-05-17T13:57:41.127Z,17.50
2018-05-17T14:00:08.620Z,17.50
2018-05-17T14:02:36.965Z,18.00
2018-05-17T14:05:04.414Z,17.90
2018-05-17T14:07:31.880Z,17.80
2018-05-17T14:09:59.501Z,18.00
2018-05-17T14:12:26.978Z,18.10
2018-05-17T14:14:54.472Z,18.20
2018-05-17T14:17:21.946Z,18.30
2018-05-17T14:19:50.204Z,18.00
2018-05-17T14:22:17.705Z,18.00
2018-05-17T14:24:47.017Z,18.10
2018-05-17T14:27:14.592Z,18.00
2018-05-17T14:29:42.069Z,18.10
2018-05-17T14:32:09.625Z,18.00
2018-05-17T14:34:37.100Z,18.10
2018-05-17T14:37:04.632Z,18.30
2018-05-17T14:39:32.101Z,18.50
2018-05-17T14:41:59.721Z,18.60
2018-05-17T14:44:27.221Z,18.40
2018-05-17T14:46:54.698Z,18.30
2018-05-17T14:49:22.969Z,18.30
2018-05-17T14:51:50.443Z,18.30
2018-05-17T14:54:18.708Z,18.10
2018-05-17T14:56:46.182Z,18.10
2018-05-17T14:59:14.451Z,18.20
2018-05-17T15:01:42.702Z,18.20
2018-05-17T15:04:10.211Z,18.20
2018-05-17T15:06:37.681Z,18.00
2018-05-17T15:09:06.100Z,18.10
2018-05-17T15:11:33.574Z,18.30
2018-05-17T15:14:01.096Z,18.20
2018-05-17T15:16:28.566Z,17.90
2018-05-17T15:18:56.117Z,17.70
2018-05-17T15:21:23.586Z,17.80
2018-05-17T15:23:51.110Z,18.00
2018-05-17T15:26:18.584Z,18.10
2018-05-17T15:28:46.091Z,17.90
2018-05-17T15:31:14.333Z,17.90
2018-05-17T15:33:41.834Z,17.90
2018-05-17T15:36:10.128Z,17.90
2018-05-17T15:38:38.375Z,17.90
2018-05-17T15:41:06.627Z,18.00
2018-05-17T15:43:34.145Z,18.00
2018-05-17T15:46:01.625Z,18.20
2018-05-17T15:48:29.133Z,18.30
2018-05-17T15:50:56.615Z,18.30
2018-05-17T15:53:24.085Z,18.20
2018-05-17T15:55:51.594Z,18.20
2018-05-17T15:58:19.065Z,18.10
2018-05-17T16:00:47.348Z,17.90
2018-05-17T16:03:15.585Z,17.80
2018-05-17T16:05:43.081Z,17.80
2018-05-17T16:08:10.571Z,17.60
2018-05-17T16:10:38.083Z,17.70
2018-05-17T16:13:06.330Z,17.80
2018-05-17T16:15:33.834Z,17.80
2018-05-17T16:18:02.089Z,17.60
2018-05-17T16:20:29.567Z,17.60
2018-05-17T16:22:57.829Z,17.90
2018-05-17T16:25:26.067Z,17.90
2018-05-17T16:27:53.570Z,17.90
2018-05-17T16:30:21.805Z,17.90
2018-05-17T16:32:49.383Z,17.90
2018-05-17T16:35:17.553Z,17.60
2018-05-17T16:37:45.027Z,17.60
2018-05-17T16:40:12.528Z,17.60
2018-05-17T16:42:40.078Z,17.40
2018-05-17T16:45:08.329Z,17.40
2018-05-17T16:47:36.569Z,17.40
2018-05-17T16:50:04.100Z,17.40
2018-05-17T16:52:31.607Z,17.40
2018-05-17T16:54:59.102Z,17.20
2018-05-17T16:57:26.632Z,17.10
2018-05-17T16:59:54.908Z,17.20
2018-05-17T17:02:22.413Z,17.20
2018-05-17T17:04:49.935Z,17.30
2018-05-17T17:07:17.407Z,17.30
2018-05-17T17:09:45.673Z,16.80
2018-05-17T17:12:13.940Z,16.80
2018-05-17T17:14:41.437Z,16.80
2018-05-17T17:17:08.948Z,16.90
2018-05-17T17:19:36.418Z,17.00
2018-05-17T17:22:04.656Z,16.70
2018-05-17T17:24:32.155Z,16.70
2018-05-17T17:27:00.394Z,16.70
2018-05-17T17:29:27.918Z,16.70
2018-05-17T17:31:55.400Z,16.60
2018-05-17T17:34:22.919Z,16.60
2018-05-17T17:36:50.398Z,16.60
2018-05-17T17:39:17.882Z,16.50
2018-05-17T17:41:45.421Z,16.50
2018-05-17T17:44:12.922Z,16.50
2018-05-17T17:46:40.431Z,16.30
2018-05-17T17:49:07.916Z,16.30
2018-05-17T17:51:35.429Z,16.10
2018-05-17T17:54:03.667Z,16.10
2018-05-17T17:56:31.183Z,16.00
2018-05-17T17:58:58.654Z,16.00
2018-05-17T18:01:26.163Z,15.80
2018-05-17T18:03:54.455Z,15.80
2018-05-17T18:06:22.888Z,15.70
2018-05-17T18:08:50.381Z,15.60
2018-05-17T18:11:18.703Z,15.50
2018-05-17T18:13:46.198Z,15.50
2018-05-17T18:16:13.814Z,15.50
2018-05-17T18:18:41.303Z,15.40
2018-05-17T18:21:08.826Z,15.40
2018-05-17T18:23:36.309Z,15.40
2018-05-17T18:26:03.780Z,15.30
2018-05-17T18:28:31.296Z,15.20
2018-05-17T18:30:58.769Z,15.10
2018-05-17T18:33:26.285Z,15.00
2018-05-17T18:35:54.558Z,15.00
2018-05-17T18:38:22.037Z,14.90
2018-05-17T18:40:50.309Z,14.90
2018-05-17T18:43:18.575Z,14.70
2018-05-17T18:45:46.812Z,14.60
2018-05-17T18:48:14.312Z,14.60
2018-05-17T18:50:42.562Z,14.50
2018-05-17T18:53:10.077Z,14.50
2018-05-17T18:55:37.564Z,14.40
2018-05-17T18:58:05.041Z,14.30
2018-05-17T19:00:32.557Z,14.30
2018-05-17T19:03:00.067Z,14.30
2018-05-17T19:05:27.586Z,14.30
2018-05-17T19:07:55.066Z,14.20
2018-05-17T19:10:22.564Z,14.20
2018-05-17T19:12:50.053Z,14.10
2018-05-17T19:15:17.561Z,13.90
2018-05-17T19:17:45.165Z,13.90
2018-05-17T19:20:12.638Z,13.90
2018-05-17T19:22:40.149Z,13.70
2018-05-17T19:25:08.458Z,13.60
2018-05-17T19:27:36.030Z,13.60
2018-05-17T19:30:03.504Z,13.50
2018-05-17T19:32:30.984Z,13.60
2018-05-17T19:34:58.517Z,13.40
